createdAt,value
2022-10-17T00:01:24.907Z,20.68
2022-10-17T00:04:47.844Z,20.85
2022-10-17T00:08:12.798Z,21.00
2022-10-17T00:11:37.861Z,20.97
2022-10-17T00:15:01.803Z,21.08
2022-10-17T00:18:25.820Z,21.31
2022-10-17T00:21:48.828Z,21.52
2022-10-17T00:25:12.826Z,21.77
2022-10-17T00:28:36.033Z,21.90
2022-10-17T00:32:00.893Z,22.66
2022-10-17T00:35:24.950Z,22.63
2022-10-17T00:38:48.831Z,22.92
2022-10-17T00:42:12.859Z,22.23
2022-10-17T00:45:38.857Z,21.73
2022-10-17T00:49:23.900Z,21.78
2022-10-17T00:52:47.918Z,21.48
2022-10-17T00:56:14.836Z,21.17
2022-10-17T00:59:38.872Z,21.14
2022-10-17T01:03:03.842Z,21.23
2022-10-17T01:06:27.867Z,21.18
2022-10-17T01:09:50.842Z,21.72
2022-10-17T01:13:22.874Z,21.41
2022-10-17T01:17:06.838Z,21.53
2022-10-17T01:20:53.889Z,21.29
2022-10-17T01:24:25.436Z,20.99
2022-10-17T01:28:25.996Z,20.39
2022-10-17T01:32:14.849Z,20.60
2022-10-17T01:35:46.896Z,20.43
2022-10-17T01:39:21.875Z,20.72
2022-10-17T01:43:06.996Z,20.43
2022-10-17T01:46:41.846Z,20.78
2022-10-17T01:50:06.891Z,20.33
2022-10-17T01:53:51.879Z,20.75
2022-10-17T01:57:20.979Z,20.50
2022-10-17T02:00:45.922Z,20.69
2022-10-17T02:04:11.917Z,20.89
2022-10-17T02:07:35.886Z,20.79
2022-10-17T02:11:08.883Z,20.27
2022-10-17T02:14:43.911Z,20.56
2022-10-17T02:18:42.898Z,19.95
2022-10-17T02:22:40.911Z,19.85
2022-10-17T02:26:31.920Z,20.11
2022-10-17T02:30:04.920Z,19.95
2022-10-17T02:33:48.000Z,19.78
2022-10-17T02:37:14.910Z,19.57
2022-10-17T02:40:38.007Z,19.53
2022-10-17T02:44:03.878Z,19.12
2022-10-17T02:47:28.914Z,19.39
2022-10-17T02:51:02.938Z,19.91
2022-10-17T02:54:27.961Z,19.86
2022-10-17T02:57:55.027Z,19.68
2022-10-17T03:01:19.015Z,19.41
2022-10-17T03:04:42.013Z,19.67
2022-10-17T03:08:07.915Z,19.57
2022-10-17T03:11:32.046Z,19.75
2022-10-17T03:14:57.972Z,19.83
2022-10-17T03:18:20.946Z,19.88
2022-10-17T03:21:49.971Z,20.09
2022-10-17T03:25:13.942Z,20.09
2022-10-17T03:28:38.945Z,20.01
2022-10-17T03:31:56.945Z,20.00
2022-10-17T03:35:20.913Z,20.07
2022-10-17T03:38:45.933Z,19.93
2022-10-17T03:42:08.905Z,20.20
2022-10-17T03:45:31.951Z,20.04
2022-10-17T03:48:54.899Z,20.11
2022-10-17T03:52:18.014Z,20.12
2022-10-17T03:55:41.915Z,20.32
2022-10-17T03:59:04.961Z,19.81
2022-10-17T04:02:28.910Z,19.78
2022-10-17T04:05:51.968Z,20.09
2022-10-17T04:09:16.891Z,19.85
2022-10-17T04:12:48.929Z,20.01
2022-10-17T04:16:15.943Z,19.88
2022-10-17T04:19:47.934Z,19.56
2022-10-17T04:23:13.974Z,19.60
2022-10-17T04:26:38.945Z,19.79
2022-10-17T04:30:04.977Z,19.72
2022-10-17T04:33:29.929Z,19.30
2022-10-17T04:36:54.965Z,19.44
2022-10-17T04:40:19.972Z,19.14
2022-10-17T04:43:46.901Z,19.08
2022-10-17T04:47:14.966Z,18.91
2022-10-17T04:50:38.941Z,19.16
2022-10-17T04:54:21.961Z,19.01
2022-10-17T04:57:53.985Z,19.06
2022-10-17T05:01:29.942Z,19.08
2022-10-17T05:04:53.975Z,19.16
2022-10-17T05:08:17.900Z,18.96
2022-10-17T05:11:43.973Z,19.20
2022-10-17T05:15:07.956Z,19.09
2022-10-17T05:18:30.996Z,18.93
2022-10-17T05:21:54.980Z,18.97
2022-10-17T05:25:19.985Z,18.86
2022-10-17T05:28:45.055Z,19.02
2022-10-17T05:32:11.095Z,18.80
2022-10-17T05:35:35.969Z,18.88
2022-10-17T05:39:04.997Z,18.80
2022-10-17T05:42:30.166Z,18.94
2022-10-17T05:45:55.983Z,18.88
2022-10-17T05:49:32.237Z,18.59
2022-10-17T05:53:03.003Z,18.65
2022-10-17T05:56:32.996Z,18.52
2022-10-17T06:00:16.995Z,18.32
2022-10-17T06:03:48.007Z,18.13
2022-10-17T06:07:11.993Z,18.36
2022-10-17T06:10:28.054Z,18.49
2022-10-17T06:13:52.017Z,18.26
2022-10-17T06:17:16.981Z,18.20
2022-10-17T06:20:45.213Z,18.22
2022-10-17T06:24:10.985Z,18.17
2022-10-17T06:27:34.070Z,17.97
2022-10-17T06:30:52.571Z,17.90
2022-10-17T06:34:10.030Z,17.81
2022-10-17T06:37:36.559Z,17.88
2022-10-17T06:41:02.010Z,17.82
2022-10-17T06:44:26.023Z,17.74
2022-10-17T06:48:08.011Z,17.66
2022-10-17T06:51:34.051Z,17.91
2022-10-17T06:55:00.043Z,17.72
2022-10-17T06:58:31.016Z,17.60
2022-10-17T07:01:58.043Z,17.70
2022-10-17T07:05:21.999Z,17.63
2022-10-17T07:08:45.040Z,17.63
2022-10-17T07:12:10.002Z,17.62
2022-10-17T07:15:36.039Z,17.63
2022-10-17T07:19:05.012Z,17.50
2022-10-17T07:22:23.051Z,17.65
2022-10-17T07:25:49.038Z,17.55
2022-10-17T07:29:15.045Z,17.50
2022-10-17T07:33:04.327Z,17.44
2022-10-17T07:36:23.023Z,17.45
2022-10-17T07:39:49.033Z,17.36
2022-10-17T07:43:13.047Z,17.37
2022-10-17T07:46:37.027Z,17.33
2022-10-17T07:50:01.041Z,17.34
2022-10-17T07:53:24.027Z,17.33
2022-10-17T07:56:49.052Z,17.31
2022-10-17T08:00:12.036Z,17.32
2022-10-17T08:03:28.043Z,17.34
2022-10-17T08:06:56.379Z,17.50
2022-10-17T08:10:28.024Z,16.91
2022-10-17T08:13:52.060Z,16.85
2022-10-17T08:17:17.082Z,16.88
2022-10-17T08:20:41.018Z,16.89
2022-10-17T08:24:04.104Z,16.31
2022-10-17T08:27:32.015Z,16.46
2022-10-17T08:30:56.085Z,16.62
2022-10-17T08:34:13.693Z,16.72
2022-10-17T08:37:32.361Z,16.45
2022-10-17T08:40:57.053Z,16.46
2022-10-17T08:44:26.133Z,16.46
2022-10-17T08:47:53.049Z,16.53
2022-10-17T08:51:43.114Z,16.84
2022-10-17T08:55:08.120Z,16.70
2022-10-17T08:58:43.056Z,16.90
2022-10-17T09:02:40.141Z,16.60
2022-10-17T09:06:16.068Z,16.61
2022-10-17T09:09:57.112Z,16.59
2022-10-17T09:17:26.211Z,16.87
2022-10-17T09:21:02.023Z,16.54
2022-10-17T09:24:53.094Z,16.60
2022-10-17T09:28:50.137Z,16.60
2022-10-17T09:32:19.060Z,16.76
2022-10-17T09:35:44.115Z,16.50
2022-10-17T09:39:14.079Z,16.63
2022-10-17T09:42:40.127Z,16.62
2022-10-17T09:46:45.077Z,16.24
2022-10-17T09:50:08.165Z,16.32
2022-10-17T09:53:50.076Z,16.16
2022-10-17T09:57:17.115Z,16.16
2022-10-17T10:00:46.156Z,16.21
2022-10-17T10:04:27.543Z,16.23
2022-10-17T10:07:55.109Z,16.18
2022-10-17T10:11:22.099Z,16.10
2022-10-17T10:14:54.702Z,16.18
2022-10-17T10:18:23.146Z,16.18
2022-10-17T10:21:47.203Z,16.01
2022-10-17T10:25:42.088Z,16.19
2022-10-17T10:29:19.097Z,16.27
2022-10-17T10:32:45.100Z,16.12
2022-10-17T10:36:09.369Z,16.16
2022-10-17T10:39:50.128Z,16.01
2022-10-17T10:43:15.099Z,15.98
2022-10-17T10:46:41.127Z,16.14
2022-10-17T10:50:06.105Z,16.02
2022-10-17T10:53:53.170Z,16.08
2022-10-17T10:57:20.110Z,16.01
2022-10-17T11:00:45.184Z,16.09
2022-10-17T11:04:23.106Z,15.94
2022-10-17T11:08:15.107Z,15.93
2022-10-17T11:11:47.114Z,16.10
2022-10-17T11:15:33.154Z,16.28
2022-10-17T11:19:22.082Z,16.29
2022-10-17T11:22:49.262Z,16.11
2022-10-17T11:26:18.091Z,16.13
2022-10-17T11:29:51.132Z,16.07
2022-10-17T11:33:17.152Z,16.08
2022-10-17T11:36:39.685Z,16.06
2022-10-17T11:40:05.193Z,16.03
2022-10-17T11:44:00.155Z,15.91
2022-10-17T11:47:32.164Z,16.03
2022-10-17T11:55:13.173Z,16.02
2022-10-17T11:58:38.312Z,16.01
2022-10-17T12:02:10.175Z,15.92
2022-10-17T12:05:42.150Z,15.99
2022-10-17T12:09:18.160Z,15.95
2022-10-17T12:12:46.155Z,16.00
2022-10-17T12:16:13.563Z,15.83
2022-10-17T12:19:42.146Z,16.04
2022-10-17T12:23:14.181Z,16.05
2022-10-17T12:26:44.165Z,16.18
2022-10-17T12:30:15.174Z,16.12
2022-10-17T12:33:54.116Z,16.14
2022-10-17T12:37:18.131Z,15.83
2022-10-17T12:40:50.162Z,15.99
2022-10-17T12:44:14.585Z,16.01
2022-10-17T12:47:53.143Z,16.02
2022-10-17T12:51:37.609Z,15.89
2022-10-17T12:55:21.121Z,15.91
2022-10-17T12:58:44.218Z,15.88
2022-10-17T13:02:11.152Z,15.95
2022-10-17T13:05:49.155Z,15.83
2022-10-17T13:09:16.169Z,15.76
2022-10-17T13:12:41.428Z,15.64
2022-10-17T13:16:07.164Z,15.55
2022-10-17T13:19:34.226Z,15.58
2022-10-17T13:23:00.203Z,15.64
2022-10-17T13:26:29.181Z,15.65
2022-10-17T13:29:59.220Z,15.66
2022-10-17T13:33:44.218Z,15.58
2022-10-17T13:37:16.193Z,15.64
2022-10-17T13:40:50.472Z,15.73
2022-10-17T13:44:17.195Z,15.63
2022-10-17T13:47:48.221Z,15.70
2022-10-17T13:51:14.147Z,15.65
2022-10-17T13:54:51.225Z,15.65
2022-10-17T13:58:31.210Z,15.60
2022-10-17T14:01:58.225Z,15.49
2022-10-17T14:05:24.203Z,15.32
2022-10-17T14:08:49.223Z,15.37
2022-10-17T14:12:34.183Z,15.35
2022-10-17T14:16:00.224Z,15.44
2022-10-17T14:19:42.200Z,15.32
2022-10-17T14:23:23.331Z,15.21
2022-10-17T14:26:47.227Z,15.26
2022-10-17T14:30:13.195Z,15.27
2022-10-17T14:33:50.447Z,15.26
2022-10-17T14:37:15.214Z,15.27
2022-10-17T14:40:41.236Z,15.28
2022-10-17T14:44:09.841Z,15.34
2022-10-17T14:47:48.642Z,15.29
2022-10-17T14:51:32.458Z,15.10
2022-10-17T14:55:06.220Z,15.21
2022-10-17T14:58:42.213Z,15.10
2022-10-17T15:02:06.238Z,15.03
2022-10-17T15:05:31.218Z,14.88
2022-10-17T15:08:55.257Z,14.97
2022-10-17T15:12:22.224Z,14.91
2022-10-17T15:15:45.226Z,15.00
2022-10-17T15:19:09.194Z,15.01
2022-10-17T15:22:32.759Z,14.85
2022-10-17T15:25:58.188Z,14.84
2022-10-17T15:29:21.364Z,14.86
2022-10-17T15:32:45.226Z,14.76
2022-10-17T15:36:09.262Z,14.74
2022-10-17T15:39:32.221Z,14.73
2022-10-17T15:42:55.274Z,14.75
2022-10-17T15:46:12.903Z,14.77
2022-10-17T15:49:31.268Z,14.60
2022-10-17T15:52:55.196Z,14.52
2022-10-17T15:56:20.260Z,14.60
2022-10-17T15:59:48.227Z,14.48
2022-10-17T16:03:13.318Z,14.59
2022-10-17T16:06:38.290Z,14.59
2022-10-17T16:10:02.291Z,14.51
2022-10-17T16:13:37.316Z,14.56
2022-10-17T16:17:01.247Z,14.59
2022-10-17T16:20:29.290Z,14.46
2022-10-17T16:23:53.238Z,14.40
2022-10-17T16:27:16.249Z,14.37
2022-10-17T16:30:42.375Z,14.36
2022-10-17T16:34:07.259Z,14.46
2022-10-17T16:37:30.241Z,14.22
2022-10-17T16:40:54.269Z,14.23
2022-10-17T16:44:24.281Z,14.24
2022-10-17T16:47:48.280Z,14.07
2022-10-17T16:51:12.287Z,14.05
2022-10-17T16:54:35.265Z,14.07
2022-10-17T16:57:59.282Z,14.09
2022-10-17T17:01:25.227Z,14.09
2022-10-17T17:04:49.323Z,13.91
2022-10-17T17:08:13.367Z,13.91
2022-10-17T17:11:40.354Z,13.80
2022-10-17T17:15:04.269Z,13.84
2022-10-17T17:18:28.314Z,13.86
2022-10-17T17:22:01.266Z,13.61
2022-10-17T17:25:25.311Z,13.59
2022-10-17T17:28:50.278Z,13.47
2022-10-17T17:32:13.311Z,13.46
2022-10-17T17:35:37.249Z,13.56
2022-10-17T17:39:00.317Z,13.60
2022-10-17T17:42:24.243Z,13.59
2022-10-17T17:45:50.319Z,13.76
2022-10-17T17:49:15.278Z,13.79
2022-10-17T17:52:38.277Z,13.81
2022-10-17T17:56:02.235Z,13.79
2022-10-17T17:59:26.319Z,13.74
2022-10-17T18:02:51.285Z,13.62
2022-10-17T18:06:14.323Z,13.64
2022-10-17T18:09:38.283Z,13.69
2022-10-17T18:13:02.279Z,13.55
2022-10-17T18:16:26.274Z,13.58
2022-10-17T18:19:50.323Z,13.51
2022-10-17T18:23:14.313Z,13.85
2022-10-17T18:26:38.375Z,13.75
2022-10-17T18:30:02.315Z,13.71
2022-10-17T18:33:26.281Z,13.79
2022-10-17T18:36:50.318Z,13.78
2022-10-17T18:40:14.292Z,14.01
2022-10-17T18:43:37.317Z,14.26
2022-10-17T18:47:04.059Z,14.79
2022-10-17T18:50:29.319Z,14.97
2022-10-17T18:53:51.336Z,15.04
2022-10-17T18:57:15.282Z,15.11
2022-10-17T19:00:39.428Z,14.74
2022-10-17T19:04:07.260Z,14.87
2022-10-17T19:07:31.644Z,15.40
2022-10-17T19:10:55.281Z,15.65
2022-10-17T19:14:23.351Z,15.74
2022-10-17T19:17:46.278Z,15.39
2022-10-17T19:21:10.329Z,15.30
2022-10-17T19:24:39.312Z,15.03
2022-10-17T19:28:03.314Z,14.86
2022-10-17T19:31:28.324Z,15.14
2022-10-17T19:34:52.332Z,15.55
2022-10-17T19:38:15.334Z,15.77
2022-10-17T19:42:01.800Z,16.34
2022-10-17T19:45:27.366Z,16.33
2022-10-17T19:48:53.347Z,16.36
2022-10-17T19:52:10.315Z,16.45
2022-10-17T19:55:34.353Z,16.70
2022-10-17T19:58:58.307Z,16.79
2022-10-17T20:02:21.375Z,16.64
2022-10-17T20:05:39.370Z,16.90
2022-10-17T20:09:02.349Z,17.40
2022-10-17T20:12:25.356Z,17.42
2022-10-17T20:15:49.484Z,17.77
2022-10-17T20:19:17.365Z,18.19
2022-10-17T20:22:40.308Z,17.98
2022-10-17T20:26:26.386Z,17.36
2022-10-17T20:29:56.351Z,18.26
2022-10-17T20:33:21.341Z,17.59
2022-10-17T20:36:45.309Z,18.78
2022-10-17T20:40:36.092Z,18.51
2022-10-17T20:43:53.380Z,19.29
2022-10-17T20:47:16.200Z,19.56
2022-10-17T20:50:45.342Z,20.34
2022-10-17T20:54:10.364Z,20.13
2022-10-17T20:57:34.432Z,20.01
2022-10-17T21:00:57.323Z,20.17
2022-10-17T21:04:44.944Z,20.54
2022-10-17T21:08:05.349Z,20.61
2022-10-17T21:11:32.319Z,20.33
2022-10-17T21:14:55.390Z,20.84
2022-10-17T21:18:18.377Z,20.59
2022-10-17T21:21:44.364Z,21.22
2022-10-17T21:25:08.373Z,21.68
2022-10-17T21:28:32.392Z,21.43
2022-10-17T21:31:57.386Z,19.37
2022-10-17T21:35:21.356Z,19.29
2022-10-17T21:38:45.387Z,18.88
2022-10-17T21:42:08.498Z,19.47
2022-10-17T21:45:32.342Z,19.86
2022-10-17T21:48:56.410Z,19.83
2022-10-17T21:52:20.337Z,20.27
2022-10-17T21:55:44.357Z,21.15
2022-10-17T21:59:08.424Z,20.37
2022-10-17T22:02:32.827Z,20.26
2022-10-17T22:06:07.057Z,21.23
2022-10-17T22:09:41.370Z,21.33
2022-10-17T22:13:04.355Z,21.34
2022-10-17T22:16:31.475Z,22.06
2022-10-17T22:19:54.399Z,20.42
2022-10-17T22:23:18.378Z,20.00
2022-10-17T22:26:43.429Z,19.62
2022-10-17T22:30:07.381Z,21.35
2022-10-17T22:33:32.436Z,20.99
2022-10-17T22:36:56.413Z,21.95
2022-10-17T22:40:21.348Z,21.81
2022-10-17T22:43:46.402Z,21.59
2022-10-17T22:47:10.361Z,20.74
2022-10-17T22:50:34.475Z,19.79
2022-10-17T22:53:58.395Z,20.77
2022-10-17T22:57:21.416Z,20.49
2022-10-17T23:00:45.408Z,19.74
2022-10-17T23:04:09.415Z,20.93
2022-10-17T23:07:33.400Z,21.78
2022-10-17T23:10:57.383Z,21.23
2022-10-17T23:14:21.409Z,20.36
2022-10-17T23:17:45.420Z,20.61
2022-10-17T23:21:09.444Z,21.55
2022-10-17T23:24:32.425Z,20.71
2022-10-17T23:27:56.451Z,21.37
2022-10-17T23:31:29.429Z,21.47
2022-10-17T23:34:53.392Z,22.64
2022-10-17T23:38:16.384Z,21.30
2022-10-17T23:41:39.469Z,22.01
2022-10-17T23:45:03.436Z,22.01
2022-10-17T23:48:27.398Z,21.74
2022-10-17T23:51:51.425Z,21.57
2022-10-17T23:55:15.459Z,22.47
2022-10-17T23:58:39.421Z,21.82
